Time;durP1;ratioP1;P1;durP2;ratioP2;P2;SDS_P1;SDS_P2;PMS_P1;PMS_P2;Temp;Humidity;BMP_temperature;BMP_pressure;BME280_temperature;BME280_humidity;BME280_pressure;Samples;Min_cycle;Max_cycle;Signal;HPM_P1;HPM_P2
2021/10/24 00:02:18;;;;;;;1.87;1.67;;;6.80;99.90;;;;;;5051425;28;20322;-76
2021/10/24 00:04:45;;;;;;;2.50;1.80;;;6.80;99.90;;;;;;5052642;28;20664;-75
2021/10/24 00:07:12;;;;;;;3.50;1.80;;;6.80;99.90;;;;;;5052103;28;20679;-75
2021/10/24 00:09:39;;;;;;;2.50;1.77;;;6.80;99.90;;;;;;5051298;28;20293;-75
2021/10/24 00:12:06;;;;;;;2.43;1.60;;;6.70;99.90;;;;;;5069880;28;20195;-74
2021/10/24 00:14:33;;;;;;;2.37;2.17;;;6.70;99.90;;;;;;5051409;28;20203;-75
2021/10/24 00:17:00;;;;;;;3.93;1.80;;;6.70;99.90;;;;;;5035315;28;20684;-75
2021/10/24 00:19:29;;;;;;;2.73;1.90;;;6.70;99.90;;;;;;5032138;28;20216;-75
2021/10/24 00:21:56;;;;;;;2.70;1.87;;;6.70;99.90;;;;;;5033027;28;20480;-75
2021/10/24 00:24:23;;;;;;;2.23;1.40;;;6.70;99.90;;;;;;5047051;28;20261;-75
2021/10/24 00:26:50;;;;;;;1.70;1.47;;;6.70;99.90;;;;;;5051615;28;20302;-75
2021/10/24 00:29:17;;;;;;;2.10;1.77;;;6.70;99.90;;;;;;5050343;28;20647;-75
2021/10/24 00:31:44;;;;;;;1.43;1.20;;;6.70;99.90;;;;;;5051105;28;20231;-75
2021/10/24 00:34:11;;;;;;;1.83;1.27;;;6.70;99.90;;;;;;5052377;28;20252;-75
2021/10/24 00:36:39;;;;;;;1.83;1.30;;;6.60;99.90;;;;;;5070162;28;20292;-75
2021/10/24 00:39:06;;;;;;;1.87;1.50;;;6.60;99.90;;;;;;5050891;28;21646;-75
2021/10/24 00:41:35;;;;;;;1.47;1.17;;;6.60;99.90;;;;;;5069585;28;20287;-75
2021/10/24 00:44:21;;;;;;;2.43;1.43;;;6.60;99.90;;;;;;5050862;28;20333;-75
2021/10/24 00:46:50;;;;;;;2.37;1.40;;;6.60;99.90;;;;;;5051627;28;20255;-75
2021/10/24 00:49:17;;;;;;;2.07;1.73;;;6.50;99.90;;;;;;5051102;28;20712;-75
2021/10/24 00:51:46;;;;;;;1.83;1.30;;;6.50;99.90;;;;;;5051528;28;20199;-75
2021/10/24 00:54:14;;;;;;;1.43;1.10;;;6.50;99.90;;;;;;5069272;28;20226;-75
2021/10/24 00:56:42;;;;;;;1.63;1.53;;;6.50;99.90;;;;;;5045345;28;20298;-75
2021/10/24 00:59:10;;;;;;;2.50;1.60;;;6.50;99.90;;;;;;5039364;28;20207;-75
2021/10/24 01:01:37;;;;;;;2.90;1.60;;;6.50;99.90;;;;;;5049845;28;20199;-76
2021/10/24 01:04:05;;;;;;;2.50;1.63;;;6.50;99.90;;;;;;5051343;28;20226;-75
2021/10/24 01:06:32;;;;;;;2.67;1.70;;;6.50;99.90;;;;;;5040212;28;20386;-75
2021/10/24 01:09:01;;;;;;;3.13;1.73;;;6.50;99.90;;;;;;5049894;28;20245;-75
2021/10/24 01:11:29;;;;;;;2.60;1.70;;;6.40;99.90;;;;;;5050113;28;20296;-75
2021/10/24 01:13:57;;;;;;;2.83;1.70;;;6.50;99.90;;;;;;5042394;28;20203;-75
2021/10/24 01:16:27;;;;;;;2.20;1.50;;;6.50;99.90;;;;;;5043600;28;20206;-75
2021/10/24 01:18:54;;;;;;;3.07;1.70;;;6.50;99.90;;;;;;5051501;28;20218;-75
2021/10/24 01:21:22;;;;;;;2.10;1.50;;;6.50;99.90;;;;;;5037278;28;20201;-75
2021/10/24 01:23:49;;;;;;;1.80;1.30;;;6.50;99.90;;;;;;5050540;28;20257;-75
2021/10/24 01:26:16;;;;;;;1.30;1.20;;;6.40;99.90;;;;;;5050127;28;20206;-76
2021/10/24 01:28:43;;;;;;;1.10;1.00;;;6.40;99.90;;;;;;5041829;28;20229;-75
2021/10/24 01:31:10;;;;;;;3.63;1.40;;;6.40;99.90;;;;;;5042822;28;20199;-75
2021/10/24 01:33:38;;;;;;;2.60;1.60;;;6.40;99.90;;;;;;5051311;28;20197;-75
2021/10/24 01:36:07;;;;;;;2.13;1.47;;;6.40;99.90;;;;;;5037982;28;20258;-75
2021/10/24 01:38:37;;;;;;;2.03;1.83;;;6.40;99.90;;;;;;5065960;28;20194;-75
2021/10/24 01:41:06;;;;;;;2.30;1.70;;;6.40;99.90;;;;;;5050296;28;20289;-74
2021/10/24 01:43:34;;;;;;;2.33;1.40;;;6.40;99.90;;;;;;5041841;28;20329;-75
2021/10/24 01:46:01;;;;;;;2.50;1.30;;;6.40;99.90;;;;;;5057037;28;20201;-74
2021/10/24 01:48:29;;;;;;;2.03;1.37;;;6.40;99.90;;;;;;5050956;28;20203;-75
2021/10/24 01:50:57;;;;;;;3.10;1.70;;;6.40;99.90;;;;;;5044147;28;20289;-75
2021/10/24 01:53:26;;;;;;;1.97;1.40;;;6.40;99.90;;;;;;5039362;28;20816;-75
2021/10/24 01:55:56;;;;;;;2.80;1.30;;;6.40;99.90;;;;;;5046611;28;20293;-74
2021/10/24 01:58:26;;;;;;;1.30;1.20;;;6.40;99.90;;;;;;5041692;28;20669;-75
2021/10/24 02:00:54;;;;;;;1.80;1.40;;;6.40;99.90;;;;;;5045041;28;20222;-75
2021/10/24 02:03:28;;;;;;;1.50;1.30;;;6.40;99.90;;;;;;5047779;28;20314;-75
2021/10/24 02:05:55;;;;;;;1.53;1.30;;;6.30;99.90;;;;;;5060034;28;20206;-75
2021/10/24 02:08:23;;;;;;;1.63;1.10;;;6.30;99.90;;;;;;5047299;28;20208;-75
2021/10/24 02:10:51;;;;;;;1.77;1.30;;;6.30;99.90;;;;;;5039386;28;20297;-75
2021/10/24 02:13:20;;;;;;;1.50;1.40;;;6.30;99.90;;;;;;5045715;28;20684;-75
2021/10/24 02:15:49;;;;;;;1.03;0.93;;;6.30;99.90;;;;;;5036675;28;20302;-75
2021/10/24 02:18:16;;;;;;;1.53;1.30;;;6.30;99.90;;;;;;5049783;28;20619;-75
2021/10/24 02:20:46;;;;;;;1.30;1.20;;;6.30;99.90;;;;;;5049541;28;20295;-75
2021/10/24 02:23:13;;;;;;;2.63;1.60;;;6.30;99.90;;;;;;5066577;28;20209;-75
2021/10/24 02:25:41;;;;;;;1.67;1.10;;;6.30;99.90;;;;;;5049969;28;20201;-75
2021/10/24 02:28:09;;;;;;;1.67;1.30;;;6.30;99.90;;;;;;5048423;28;20240;-76
2021/10/24 02:30:37;;;;;;;1.57;1.43;;;6.20;99.90;;;;;;5038991;28;20555;-75
2021/10/24 02:33:23;;;;;;;1.53;1.37;;;6.20;99.90;;;;;;5067726;28;20212;-75
2021/10/24 02:36:28;;;;;;;1.10;1.00;;;6.20;99.90;;;;;;5024024;28;20633;-75
2021/10/24 02:39:01;;;;;;;1.10;0.90;;;6.30;99.90;;;;;;5008785;28;20692;-75
2021/10/24 02:41:32;;;;;;;1.27;1.07;;;6.30;99.90;;;;;;5008304;28;20729;-74
2021/10/24 02:44:00;;;;;;;1.43;1.13;;;6.20;99.90;;;;;;5008830;28;20230;-75
2021/10/24 02:46:34;;;;;;;1.80;1.40;;;6.20;99.90;;;;;;5008990;28;20217;-74
2021/10/24 02:49:10;;;;;;;1.10;1.00;;;6.20;99.90;;;;;;5008917;28;20198;-74
2021/10/24 02:51:47;;;;;;;1.20;1.10;;;6.20;99.90;;;;;;5009353;28;20214;-74
2021/10/24 02:54:14;;;;;;;1.87;1.00;;;6.20;99.90;;;;;;5008700;28;20317;-74
2021/10/24 02:56:41;;;;;;;1.23;1.10;;;6.20;99.90;;;;;;5027704;28;20211;-74
2021/10/24 02:59:08;;;;;;;0.77;0.77;;;6.20;99.90;;;;;;5008334;28;20210;-74
2021/10/24 03:01:37;;;;;;;1.23;0.90;;;6.20;99.90;;;;;;5007537;28;20214;-75
2021/10/24 03:04:05;;;;;;;0.90;0.90;;;6.20;99.90;;;;;;5025305;28;20258;-75
2021/10/24 03:06:33;;;;;;;1.47;1.00;;;6.10;99.90;;;;;;5018152;28;20208;-75
2021/10/24 03:09:00;;;;;;;1.20;1.10;;;6.10;99.90;;;;;;5053435;28;20247;-74
2021/10/24 03:11:29;;;;;;;0.80;0.80;;;6.10;99.90;;;;;;5051855;28;20209;-74
2021/10/24 03:13:58;;;;;;;0.80;0.80;;;6.10;99.90;;;;;;5052856;28;20221;-74
2021/10/24 03:16:25;;;;;;;1.13;1.00;;;6.10;99.90;;;;;;5060567;28;20233;-74
2021/10/24 03:18:53;;;;;;;1.10;1.00;;;6.10;99.90;;;;;;5053447;28;20232;-73
2021/10/24 03:21:20;;;;;;;0.93;0.83;;;6.10;99.90;;;;;;5053263;28;20197;-74
2021/10/24 03:23:52;;;;;;;1.30;0.93;;;6.10;99.90;;;;;;5053066;28;20228;-74
2021/10/24 03:26:19;;;;;;;2.03;1.00;;;6.10;99.90;;;;;;5052670;28;20754;-74
2021/10/24 03:28:47;;;;;;;0.80;0.80;;;6.10;99.90;;;;;;5061633;28;20233;-73
2021/10/24 03:31:15;;;;;;;1.10;1.00;;;6.00;99.90;;;;;;5036721;28;20278;-73
2021/10/24 03:33:42;;;;;;;1.63;1.10;;;6.00;99.90;;;;;;5053483;28;20209;-74
2021/10/24 03:36:11;;;;;;;0.70;0.70;;;6.00;99.90;;;;;;5053714;28;20615;-74
2021/10/24 03:38:38;;;;;;;1.33;1.00;;;6.00;99.90;;;;;;5053253;28;20221;-74
2021/10/24 03:41:06;;;;;;;1.10;1.00;;;6.00;99.90;;;;;;5051161;28;20197;-74
2021/10/24 03:43:33;;;;;;;0.90;0.90;;;6.00;99.90;;;;;;5044853;28;20320;-76
2021/10/24 03:46:00;;;;;;;2.80;1.07;;;6.00;99.90;;;;;;5034757;28;20199;-74
2021/10/24 03:48:27;;;;;;;0.77;0.73;;;6.00;99.90;;;;;;5053119;28;20244;-73
2021/10/24 03:50:54;;;;;;;1.07;0.97;;;6.00;99.90;;;;;;5052208;28;20224;-74
2021/10/24 03:53:27;;;;;;;1.07;1.00;;;5.90;99.90;;;;;;5046325;28;20756;-74
2021/10/24 03:55:54;;;;;;;0.87;0.87;;;5.90;99.90;;;;;;5047614;28;20196;-74
2021/10/24 03:58:21;;;;;;;1.37;0.90;;;5.90;99.90;;;;;;5051253;28;20224;-74
2021/10/24 04:00:48;;;;;;;1.00;0.90;;;5.90;99.90;;;;;;5047546;28;20693;-73
2021/10/24 04:03:23;;;;;;;1.10;0.90;;;5.90;99.90;;;;;;5050728;28;20224;-74
2021/10/24 04:05:50;;;;;;;2.63;1.20;;;5.80;99.90;;;;;;5049577;28;20229;-74
2021/10/24 04:08:19;;;;;;;1.33;1.00;;;5.80;99.90;;;;;;5052336;28;20210;-74
2021/10/24 04:10:47;;;;;;;1.37;1.23;;;5.80;99.90;;;;;;5052378;28;20665;-74
2021/10/24 04:13:14;;;;;;;1.17;0.83;;;5.80;99.90;;;;;;5056323;28;20221;-74
2021/10/24 04:15:43;;;;;;;2.17;1.17;;;5.80;99.90;;;;;;5047299;28;20747;-74
2021/10/24 04:18:33;;;;;;;1.53;1.23;;;5.80;99.90;;;;;;5054027;28;20288;-75
2021/10/24 04:21:00;;;;;;;2.07;1.00;;;5.80;99.90;;;;;;5051540;28;20645;-74
2021/10/24 04:23:27;;;;;;;2.10;1.10;;;5.80;99.90;;;;;;5046415;28;20251;-75
2021/10/24 04:25:58;;;;;;;1.27;1.17;;;5.70;99.90;;;;;;5043166;28;20204;-73
2021/10/24 04:28:25;;;;;;;1.20;1.10;;;5.70;99.90;;;;;;5051030;28;20677;-74
2021/10/24 04:30:52;;;;;;;2.00;1.10;;;5.70;99.90;;;;;;5039017;28;20202;-74
2021/10/24 04:33:19;;;;;;;2.23;1.33;;;5.70;99.90;;;;;;5051085;28;20204;-75
2021/10/24 04:35:46;;;;;;;2.47;1.30;;;5.70;99.90;;;;;;5050945;28;20228;-75
2021/10/24 04:38:13;;;;;;;1.67;1.40;;;5.70;99.90;;;;;;5051369;28;20201;-75
2021/10/24 04:40:40;;;;;;;1.43;1.30;;;5.70;99.90;;;;;;5047691;28;20225;-75
2021/10/24 04:43:14;;;;;;;1.63;1.10;;;5.80;99.90;;;;;;5048494;28;20267;-75
2021/10/24 04:45:41;;;;;;;1.30;1.20;;;5.70;99.90;;;;;;5048948;28;20204;-75
2021/10/24 04:48:09;;;;;;;1.60;1.40;;;5.80;99.90;;;;;;5050322;28;20230;-75
2021/10/24 04:50:53;;;;;;;1.17;1.07;;;5.80;99.90;;;;;;5048516;28;20197;-75
2021/10/24 04:53:21;;;;;;;1.10;1.03;;;5.80;99.90;;;;;;5049979;28;20229;-75
2021/10/24 04:55:51;;;;;;;2.10;1.27;;;5.80;99.90;;;;;;5048561;28;20196;-75
2021/10/24 04:58:19;;;;;;;0.90;0.90;;;5.80;99.90;;;;;;5044887;28;20209;-75
2021/10/24 05:00:46;;;;;;;1.17;1.03;;;5.80;99.90;;;;;;5050600;28;20201;-75
2021/10/24 05:03:15;;;;;;;1.77;1.00;;;5.80;99.90;;;;;;5050897;28;20205;-76
2021/10/24 05:05:44;;;;;;;1.23;1.03;;;5.80;99.90;;;;;;5050169;28;20227;-75
2021/10/24 05:08:11;;;;;;;1.20;1.10;;;5.80;99.90;;;;;;5045895;28;20197;-75
2021/10/24 05:10:41;;;;;;;1.43;1.30;;;5.80;99.90;;;;;;5040303;28;20562;-75
2021/10/24 05:13:08;;;;;;;1.60;1.10;;;5.80;99.90;;;;;;5049683;28;20475;-75
2021/10/24 05:15:37;;;;;;;2.10;1.30;;;5.90;99.90;;;;;;5046252;28;20229;-75
2021/10/24 05:18:07;;;;;;;1.77;1.50;;;5.90;99.90;;;;;;5051150;28;20201;-75
2021/10/24 05:20:36;;;;;;;2.77;1.73;;;5.80;99.90;;;;;;5051014;28;20262;-75
2021/10/24 05:23:05;;;;;;;1.47;1.37;;;5.80;99.90;;;;;;5050224;28;20353;-75
2021/10/24 05:25:35;;;;;;;1.93;1.40;;;5.80;99.90;;;;;;5039330;28;20648;-75
2021/10/24 05:28:04;;;;;;;1.87;1.40;;;5.80;99.90;;;;;;5043726;28;20202;-75
2021/10/24 05:30:31;;;;;;;1.30;1.20;;;5.80;99.90;;;;;;5042112;28;20202;-75
2021/10/24 05:33:00;;;;;;;2.50;1.67;;;5.80;99.90;;;;;;5050169;28;20668;-74
2021/10/24 05:35:32;;;;;;;2.17;1.73;;;5.80;99.90;;;;;;5050726;28;20220;-74
2021/10/24 05:37:59;;;;;;;1.77;1.67;;;5.80;99.90;;;;;;5050300;28;20530;-76
2021/10/24 05:40:31;;;;;;;1.80;1.53;;;5.80;99.90;;;;;;5050234;28;20204;-74
2021/10/24 05:43:03;;;;;;;1.63;1.47;;;5.80;99.90;;;;;;5049152;28;20232;-74
2021/10/24 05:45:31;;;;;;;2.13;1.47;;;5.90;99.90;;;;;;5041006;28;20276;-75
2021/10/24 05:48:00;;;;;;;2.43;1.67;;;5.90;99.90;;;;;;5039663;28;20724;-74
2021/10/24 05:50:39;;;;;;;2.83;1.50;;;5.90;99.90;;;;;;5050903;28;20497;-74
2021/10/24 05:53:07;;;;;;;2.80;2.00;;;6.00;99.90;;;;;;5050043;28;20562;-75
2021/10/24 05:55:35;;;;;;;2.63;1.97;;;6.00;99.90;;;;;;5049283;28;20251;-75
2021/10/24 05:58:03;;;;;;;2.93;1.80;;;6.00;99.90;;;;;;5060714;28;20220;-74
2021/10/24 06:00:50;;;;;;;2.37;1.60;;;6.10;99.90;;;;;;5055311;28;20204;-74
2021/10/24 06:03:57;;;;;;;2.03;1.83;;;6.10;99.90;;;;;;5067261;28;20217;-75
2021/10/24 06:06:44;;;;;;;2.93;2.00;;;6.10;99.90;;;;;;5067186;28;20228;-75
2021/10/24 06:09:11;;;;;;;2.47;1.90;;;6.20;99.90;;;;;;5056168;28;20215;-75
2021/10/24 06:11:47;;;;;;;3.07;2.20;;;6.20;99.90;;;;;;5049859;28;20202;-74
2021/10/24 06:14:14;;;;;;;2.73;2.00;;;6.30;99.90;;;;;;5067443;28;20275;-75
2021/10/24 06:16:41;;;;;;;2.60;2.40;;;6.30;99.90;;;;;;5037507;28;20209;-74
2021/10/24 06:19:09;;;;;;;2.63;2.27;;;6.30;99.90;;;;;;5064701;28;20276;-74
2021/10/24 06:21:37;;;;;;;2.80;2.40;;;6.30;99.90;;;;;;5048255;28;20228;-75
2021/10/24 06:24:04;;;;;;;3.03;2.47;;;6.40;99.90;;;;;;5048630;28;20244;-75
2021/10/24 06:26:32;;;;;;;2.70;2.20;;;6.40;99.90;;;;;;5047990;28;20812;-75
2021/10/24 06:28:59;;;;;;;3.40;2.40;;;6.40;99.90;;;;;;5048863;28;20211;-75
2021/10/24 06:31:26;;;;;;;5.50;2.80;;;6.40;99.90;;;;;;5042467;28;20205;-75
2021/10/24 06:34:13;;;;;;;2.87;2.30;;;6.40;99.90;;;;;;5061884;28;20286;-75
2021/10/24 06:37:00;;;;;;;3.10;2.30;;;6.50;99.90;;;;;;5067360;28;20212;-75
2021/10/24 06:39:32;;;;;;;3.20;2.30;;;6.50;99.90;;;;;;5052355;28;20743;-75
2021/10/24 06:42:00;;;;;;;4.60;2.33;;;6.60;99.90;;;;;;5052966;28;20217;-76
2021/10/24 06:44:50;;;;;;;2.87;2.20;;;6.70;99.90;;;;;;5065949;28;20267;-74
2021/10/24 06:47:23;;;;;;;2.57;1.80;;;6.80;99.90;;;;;;5071174;28;20197;-75
2021/10/24 06:50:14;;;;;;;2.00;1.87;;;6.80;99.90;;;;;;4990507;28;20235;-76
2021/10/24 06:52:56;;;;;;;3.30;2.17;;;6.90;99.90;;;;;;4989290;28;20376;-76
2021/10/24 06:55:42;;;;;;;3.10;2.10;;;7.00;99.90;;;;;;4992130;28;20220;-75
2021/10/24 06:58:18;;;;;;;2.87;2.13;;;7.20;99.90;;;;;;4989633;28;20198;-75
2021/10/24 07:01:04;;;;;;;3.00;2.00;;;7.30;99.90;;;;;;4990012;28;20225;-74
2021/10/24 07:03:49;;;;;;;2.60;1.90;;;7.40;99.90;;;;;;4989701;28;20210;-75
2021/10/24 07:06:26;;;;;;;2.93;2.20;;;7.50;99.90;;;;;;4983882;28;20232;-76
2021/10/24 07:09:32;;;;;;;4.53;2.20;;;7.70;99.90;;;;;;4913165;29;20238;-76
2021/10/24 07:11:59;;;;;;;3.73;2.33;;;7.90;99.90;;;;;;4893678;29;20222;-76
2021/10/24 07:14:27;;;;;;;2.23;2.03;;;8.40;99.90;;;;;;4896551;29;20218;-76
2021/10/24 07:16:53;;;;;;;4.00;2.53;;;9.00;99.90;;;;;;4927180;29;20213;-75
2021/10/24 07:19:21;;;;;;;2.30;2.10;;;9.80;99.90;;;;;;4897547;29;20215;-75
2021/10/24 07:21:50;;;;;;;4.17;2.77;;;10.70;99.90;;;;;;4922092;29;20283;-75
2021/10/24 07:24:37;;;;;;;3.57;2.57;;;11.60;99.90;;;;;;4904197;29;20622;-75
2021/10/24 07:27:04;;;;;;;5.03;3.17;;;12.50;99.90;;;;;;4930820;28;20201;-76
2021/10/24 07:29:31;;;;;;;4.97;3.20;;;13.00;99.10;;;;;;4980999;28;20227;-75
2021/10/24 07:31:58;;;;;;;4.77;3.20;;;13.20;98.20;;;;;;4953189;28;20212;-75
2021/10/24 07:34:51;;;;;;;4.37;3.07;;;13.20;97.50;;;;;;4962578;28;20335;-75
2021/10/24 07:37:19;;;;;;;4.97;2.80;;;13.30;97.20;;;;;;4954276;28;20218;-75
2021/10/24 07:39:47;;;;;;;4.47;2.70;;;13.30;97.10;;;;;;4987960;28;20626;-75
2021/10/24 07:42:14;;;;;;;3.77;2.50;;;13.40;97.10;;;;;;5045085;28;20197;-75
2021/10/24 07:44:43;;;;;;;4.40;2.87;;;13.50;97.00;;;;;;5047680;28;20673;-74
2021/10/24 07:47:12;;;;;;;4.30;2.97;;;13.60;96.90;;;;;;5038885;28;20209;-74
2021/10/24 07:49:41;;;;;;;5.27;3.33;;;13.70;96.70;;;;;;5051813;28;20325;-75
2021/10/24 07:52:12;;;;;;;5.43;3.43;;;13.90;96.50;;;;;;5052648;28;20213;-75
2021/10/24 07:54:40;;;;;;;8.73;5.00;;;14.00;96.30;;;;;;5051531;28;20266;-75
2021/10/24 07:57:10;;;;;;;8.00;4.80;;;14.10;95.80;;;;;;5049300;28;20200;-75
2021/10/24 07:59:38;;;;;;;8.67;5.47;;;14.40;95.60;;;;;;5051826;28;20205;-75
2021/10/24 08:02:05;;;;;;;8.00;5.00;;;14.50;95.20;;;;;;5051803;28;20247;-76
2021/10/24 08:04:33;;;;;;;10.53;5.53;;;14.60;94.90;;;;;;5052163;28;20313;-75
2021/10/24 08:07:03;;;;;;;9.97;5.50;;;14.60;94.80;;;;;;5052413;28;20217;-75
2021/10/24 08:09:32;;;;;;;7.33;4.83;;;15.00;94.70;;;;;;5044210;28;20625;-75
2021/10/24 08:12:03;;;;;;;7.20;4.97;;;15.50;94.10;;;;;;5051932;28;20330;-75
2021/10/24 08:14:33;;;;;;;7.57;4.33;;;16.00;93.50;;;;;;5051587;28;20209;-76
2021/10/24 08:17:02;;;;;;;8.63;4.13;;;16.60;92.90;;;;;;5045237;28;20206;-76
2021/10/24 08:19:30;;;;;;;5.90;3.70;;;17.00;92.20;;;;;;5052897;28;20204;-76
2021/10/24 08:22:07;;;;;;;5.90;3.60;;;17.10;91.50;;;;;;5040971;28;20235;-76
2021/10/24 08:24:38;;;;;;;5.63;3.50;;;17.10;91.10;;;;;;5051389;28;20235;-76
2021/10/24 08:27:17;;;;;;;4.93;3.50;;;16.90;91.10;;;;;;5051391;28;20299;-76
2021/10/24 08:29:45;;;;;;;4.60;2.97;;;16.70;91.00;;;;;;5049853;28;20215;-75
2021/10/24 08:32:30;;;;;;;6.43;3.63;;;16.60;91.10;;;;;;5051369;28;20624;-76
2021/10/24 08:34:58;;;;;;;6.27;3.80;;;16.70;91.00;;;;;;5037711;28;20278;-75
2021/10/24 08:37:25;;;;;;;6.13;3.70;;;16.70;90.80;;;;;;5051968;28;20208;-76
2021/10/24 08:39:53;;;;;;;6.57;3.27;;;16.80;90.70;;;;;;5038052;28;20212;-76
2021/10/24 08:42:26;;;;;;;5.00;3.60;;;17.30;90.50;;;;;;5051442;28;20207;-75
2021/10/24 08:44:55;;;;;;;6.40;3.67;;;18.00;90.00;;;;;;5047574;28;20245;-75
2021/10/24 08:47:22;;;;;;;6.23;3.57;;;18.70;87.90;;;;;;5049965;28;20792;-76
2021/10/24 08:49:49;;;;;;;5.10;3.30;;;19.20;85.90;;;;;;5050293;28;20195;-76
2021/10/24 08:52:18;;;;;;;7.70;3.83;;;19.80;84.30;;;;;;5042279;28;20267;-76
2021/10/24 08:54:45;;;;;;;5.80;3.63;;;20.10;83.30;;;;;;5068603;28;20324;-76
2021/10/24 08:57:12;;;;;;;9.25;4.35;;;20.50;81.00;;;;;;5048244;28;20209;-75
2021/10/24 08:59:40;;;;;;;4.67;3.30;;;20.90;79.50;;;;;;5069985;28;20202;-74
2021/10/24 09:02:07;;;;;;;4.95;2.80;;;21.30;77.80;;;;;;5050614;28;20267;-75
2021/10/24 09:04:49;;;;;;;3.58;2.80;;;21.70;76.40;;;;;;5050764;28;20201;-75
2021/10/24 09:07:16;;;;;;;3.42;2.50;;;22.00;74.80;;;;;;5037442;28;20197;-76
2021/10/24 09:09:44;;;;;;;3.60;3.10;;;22.30;73.70;;;;;;5032063;28;20744;-75
2021/10/24 09:12:12;;;;;;;4.85;2.55;;;22.60;72.10;;;;;;5049664;28;20236;-76
2021/10/24 09:14:43;;;;;;;2.72;2.45;;;23.00;71.20;;;;;;5043847;28;20212;-76
2021/10/24 09:17:12;;;;;;;3.05;2.38;;;23.70;68.60;;;;;;5044430;28;20244;-76
2021/10/24 09:19:40;;;;;;;2.85;2.15;;;24.40;66.20;;;;;;5052046;28;20759;-76
2021/10/24 09:22:25;;;;;;;1.92;1.80;;;24.90;64.00;;;;;;5069444;28;20219;-76
2021/10/24 09:25:08;;;;;;;4.22;2.10;;;25.50;61.70;;;;;;5049736;28;20302;-75
2021/10/24 09:27:45;;;;;;;2.40;2.03;;;26.00;59.60;;;;;;5068140;28;20700;-75
2021/10/24 09:30:15;;;;;;;3.35;1.65;;;26.50;58.10;;;;;;5063962;28;20711;-76
2021/10/24 09:32:52;;;;;;;2.47;1.80;;;26.70;57.10;;;;;;5057295;28;20201;-76
2021/10/24 09:35:24;;;;;;;3.42;1.95;;;26.80;56.00;;;;;;5050082;28;20649;-76
2021/10/24 09:38:15;;;;;;;2.95;1.88;;;26.90;55.20;;;;;;5068569;28;20696;-78
2021/10/24 09:40:52;;;;;;;2.42;1.65;;;27.10;54.30;;;;;;5041731;28;20633;-77
2021/10/24 09:43:21;;;;;;;1.60;1.38;;;27.40;53.40;;;;;;5064779;28;20249;-77
2021/10/24 09:45:52;;;;;;;3.03;2.13;;;27.50;52.70;;;;;;5040457;28;20307;-76
2021/10/24 09:48:21;;;;;;;1.95;1.75;;;27.60;51.30;;;;;;5059599;28;20637;-76
2021/10/24 09:50:51;;;;;;;2.00;1.88;;;27.50;50.90;;;;;;5041688;28;20750;-76
2021/10/24 09:53:21;;;;;;;3.20;2.00;;;27.50;50.60;;;;;;5036636;28;20763;-76
2021/10/24 09:56:03;;;;;;;3.50;2.53;;;27.40;50.30;;;;;;5037496;28;20229;-76
2021/10/24 09:58:31;;;;;;;3.33;2.75;;;27.30;50.20;;;;;;5039368;28;20695;-76
2021/10/24 10:01:00;;;;;;;4.18;3.20;;;27.20;50.20;;;;;;5039306;28;20213;-76
2021/10/24 10:03:28;;;;;;;4.78;3.05;;;27.10;49.90;;;;;;5041814;28;20201;-75
2021/10/24 10:05:56;;;;;;;3.15;2.70;;;27.10;50.10;;;;;;5054179;28;20442;-75
2021/10/24 10:08:23;;;;;;;2.97;2.60;;;26.90;49.60;;;;;;5039940;28;20517;-76
2021/10/24 10:10:54;;;;;;;3.45;2.15;;;26.90;49.40;;;;;;5039571;28;20205;-75
2021/10/24 10:13:26;;;;;;;2.88;2.63;;;27.00;49.40;;;;;;5057697;28;21016;-74
2021/10/24 10:15:53;;;;;;;2.70;2.45;;;27.20;48.90;;;;;;5041861;28;21009;-74
2021/10/24 10:18:22;;;;;;;3.50;2.22;;;27.40;48.40;;;;;;5043962;28;20201;-75
2021/10/24 10:20:51;;;;;;;3.40;2.10;;;27.60;48.40;;;;;;5043690;28;20270;-76
2021/10/24 10:23:23;;;;;;;2.25;2.05;;;27.80;48.00;;;;;;5063095;28;20717;-76
2021/10/24 10:25:51;;;;;;;2.50;2.13;;;28.20;47.60;;;;;;5041909;28;20231;-76
2021/10/24 10:28:45;;;;;;;2.05;1.95;;;28.20;46.90;;;;;;5041124;28;20205;-75
2021/10/24 10:31:14;;;;;;;2.05;1.85;;;27.80;47.00;;;;;;5058352;28;20657;-75
2021/10/24 10:33:57;;;;;;;2.13;1.67;;;27.20;47.10;;;;;;5060293;28;20194;-75
2021/10/24 10:36:59;;;;;;;1.88;1.77;;;26.60;47.90;;;;;;5043746;28;20220;-76
2021/10/24 10:39:51;;;;;;;2.50;2.30;;;26.20;48.30;;;;;;5042751;28;20199;-76
2021/10/24 10:42:51;;;;;;;3.10;2.67;;;26.50;48.00;;;;;;4979084;28;20207;-76
2021/10/24 10:45:26;;;;;;;2.42;2.20;;;27.00;47.40;;;;;;4972037;28;20303;-76
2021/10/24 10:47:55;;;;;;;2.20;2.00;;;27.70;46.70;;;;;;4975256;28;20210;-69
2021/10/24 10:50:45;;;;;;;2.40;2.20;;;28.30;45.80;;;;;;4981705;28;20298;-75
2021/10/24 10:53:41;;;;;;;2.08;1.85;;;28.60;45.20;;;;;;4979614;28;20263;-75
2021/10/24 10:56:21;;;;;;;3.28;1.83;;;28.80;44.50;;;;;;4974566;28;20223;-75
2021/10/24 10:58:49;;;;;;;2.22;1.77;;;29.10;43.80;;;;;;4960412;28;20449;-76
2021/10/24 11:01:25;;;;;;;1.42;1.20;;;28.80;42.90;;;;;;4963054;28;20208;-75
2021/10/24 11:03:53;;;;;;;2.25;1.52;;;28.40;43.10;;;;;;4965035;28;20231;-75
2021/10/24 11:06:52;;;;;;;1.65;1.52;;;28.50;42.90;;;;;;4976720;28;20243;-75
2021/10/24 11:09:39;;;;;;;1.30;1.20;;;28.80;42.20;;;;;;4961958;28;20196;-76
2021/10/24 11:12:09;;;;;;;1.20;1.10;;;29.00;41.50;;;;;;4980073;28;20255;-76
2021/10/24 11:14:46;;;;;;;2.05;1.27;;;28.40;41.50;;;;;;4957952;28;20208;-75
2021/10/24 11:17:35;;;;;;;1.35;1.20;;;27.70;41.90;;;;;;4962830;28;20216;-75
2021/10/24 11:20:25;;;;;;;1.33;1.00;;;26.80;42.50;;;;;;5043231;28;20600;-75
2021/10/24 11:22:54;;;;;;;2.55;1.20;;;25.90;43.00;;;;;;5059228;28;20205;-74
2021/10/24 11:25:28;;;;;;;1.05;0.80;;;25.20;43.30;;;;;;5044444;28;20220;-74
2021/10/24 11:27:57;;;;;;;2.72;0.80;;;24.50;43.60;;;;;;5045390;28;20685;-74
2021/10/24 11:30:24;;;;;;;2.38;1.50;;;24.00;44.00;;;;;;5042460;28;20205;-74
2021/10/24 11:32:55;;;;;;;1.40;1.30;;;23.50;44.10;;;;;;5060935;28;20206;-74
2021/10/24 11:35:24;;;;;;;1.40;1.30;;;23.10;44.40;;;;;;5047295;28;20294;-73
2021/10/24 11:37:54;;;;;;;2.40;1.35;;;22.60;44.60;;;;;;5065609;28;20262;-74
2021/10/24 11:40:23;;;;;;;1.10;1.00;;;22.20;45.00;;;;;;5066388;28;20197;-73
2021/10/24 11:43:01;;;;;;;1.92;1.00;;;21.80;45.40;;;;;;5045187;28;20719;-73
2021/10/24 11:45:31;;;;;;;1.00;0.90;;;21.40;45.70;;;;;;5040305;28;20202;-74
2021/10/24 11:48:04;;;;;;;0.95;0.88;;;21.10;46.00;;;;;;5041077;28;20607;-74
2021/10/24 11:50:43;;;;;;;0.90;0.90;;;20.80;46.10;;;;;;5047863;28;20217;-74
2021/10/24 11:53:12;;;;;;;1.52;1.00;;;20.50;46.30;;;;;;5049368;28;20252;-73
2021/10/24 11:55:40;;;;;;;1.95;1.20;;;20.40;46.60;;;;;;5040805;28;20288;-73
2021/10/24 11:58:22;;;;;;;1.10;0.90;;;20.20;46.60;;;;;;5063173;28;20307;-73
2021/10/24 12:00:52;;;;;;;0.88;0.88;;;20.00;46.70;;;;;;5065220;28;20603;-74
2021/10/24 12:03:28;;;;;;;1.02;0.90;;;19.90;46.80;;;;;;5043684;28;20667;-74
2021/10/24 12:05:56;;;;;;;0.95;0.90;;;19.70;46.80;;;;;;5066859;28;20235;-74
2021/10/24 12:08:42;;;;;;;1.35;1.15;;;19.60;46.80;;;;;;5065397;28;20842;-73
2021/10/24 12:11:13;;;;;;;1.60;1.30;;;19.50;47.00;;;;;;5055880;28;20471;-74
2021/10/24 12:13:42;;;;;;;1.60;1.50;;;19.60;47.20;;;;;;5047136;28;20465;-73
2021/10/24 12:16:25;;;;;;;1.50;1.40;;;19.60;47.30;;;;;;5064037;28;20197;-74
2021/10/24 12:19:07;;;;;;;2.17;1.50;;;19.50;47.40;;;;;;5040594;28;20229;-74
2021/10/24 12:21:34;;;;;;;2.83;1.55;;;19.40;47.50;;;;;;5056060;28;20214;-71
2021/10/24 12:24:18;;;;;;;2.33;2.05;;;19.50;47.80;;;;;;5044686;28;20686;-74
2021/10/24 12:26:46;;;;;;;2.25;2.05;;;19.40;47.90;;;;;;5043549;28;20724;-74
2021/10/24 12:29:16;;;;;;;3.72;2.60;;;19.40;48.10;;;;;;5058452;28;20298;-74
2021/10/24 12:31:44;;;;;;;3.20;2.30;;;19.30;48.20;;;;;;5044686;28;20197;-73
2021/10/24 12:34:15;;;;;;;3.65;1.90;;;19.20;49.00;;;;;;5044245;28;20201;-75
2021/10/24 12:36:43;;;;;;;2.90;1.65;;;19.00;48.60;;;;;;5043900;28;20220;-74
2021/10/24 12:39:22;;;;;;;1.67;1.50;;;18.80;48.80;;;;;;5063217;28;20197;-73
2021/10/24 12:41:50;;;;;;;2.40;1.30;;;18.70;49.00;;;;;;5047693;28;20561;-73
2021/10/24 12:44:31;;;;;;;2.08;1.30;;;18.60;49.10;;;;;;5041556;28;20735;-74
2021/10/24 12:47:00;;;;;;;3.17;1.50;;;18.50;49.10;;;;;;5037868;28;20217;-74
2021/10/24 12:49:29;;;;;;;2.95;2.50;;;18.40;49.00;;;;;;5041424;28;20695;-75
2021/10/24 12:52:10;;;;;;;2.17;1.98;;;18.20;49.10;;;;;;5044150;28;20205;-74
2021/10/24 12:54:37;;;;;;;1.65;1.55;;;18.00;49.40;;;;;;5046035;28;20335;-73
2021/10/24 12:57:07;;;;;;;1.70;1.60;;;17.90;49.60;;;;;;5046694;28;20437;-73
2021/10/24 12:59:35;;;;;;;2.00;1.60;;;17.90;49.90;;;;;;5046278;28;20205;-74
2021/10/24 13:02:04;;;;;;;1.48;1.33;;;17.80;50.20;;;;;;5043712;28;20205;-74
2021/10/24 13:04:31;;;;;;;0.98;0.98;;;17.80;50.40;;;;;;5039458;28;20213;-74
2021/10/24 13:06:58;;;;;;;2.25;1.13;;;17.80;50.70;;;;;;5064041;28;20220;-74
2021/10/24 13:09:26;;;;;;;0.70;0.70;;;17.70;51.10;;;;;;5061761;28;20200;-73
2021/10/24 13:11:54;;;;;;;2.47;1.45;;;17.60;51.40;;;;;;5063057;28;20200;-73
2021/10/24 13:14:21;;;;;;;1.80;1.47;;;17.50;51.80;;;;;;5059074;28;20286;-74
2021/10/24 13:16:49;;;;;;;1.60;1.33;;;17.30;52.20;;;;;;5054189;28;20193;-74